createdAt,value
2023-03-12T00:01:24.228Z,2.20
2023-03-12T00:03:51.392Z,2.18
2023-03-12T00:06:18.972Z,2.14
2023-03-12T00:08:45.720Z,2.12
2023-03-12T00:11:17.990Z,2.08
2023-03-12T00:13:44.697Z,2.09
2023-03-12T00:16:15.911Z,2.04
2023-03-12T00:18:43.413Z,2.01
2023-03-12T00:21:10.410Z,2.01
2023-03-12T00:23:37.221Z,2.05
2023-03-12T00:26:05.924Z,2.04
2023-03-12T00:28:32.701Z,1.97
2023-03-12T00:30:59.502Z,1.95
2023-03-12T00:33:27.341Z,1.92
2023-03-12T00:35:54.122Z,1.96
2023-03-12T00:38:21.094Z,1.93
2023-03-12T00:40:48.702Z,1.82
2023-03-12T00:43:15.403Z,1.95
2023-03-12T00:45:42.143Z,1.91
2023-03-12T00:48:08.816Z,1.88
2023-03-12T00:50:35.707Z,1.92
2023-03-12T00:53:02.593Z,1.91
2023-03-12T00:55:29.710Z,1.86
2023-03-12T00:57:56.355Z,1.82
2023-03-12T01:00:23.272Z,1.81
2023-03-12T01:02:49.956Z,1.80
2023-03-12T01:05:16.890Z,1.81
2023-03-12T01:07:43.544Z,1.81
2023-03-12T01:10:13.932Z,1.66
2023-03-12T01:12:41.346Z,1.77
2023-03-12T01:15:10.201Z,1.72
2023-03-12T01:17:37.056Z,1.72
2023-03-12T01:20:04.073Z,1.69
2023-03-12T01:22:30.768Z,1.69
2023-03-12T01:24:57.646Z,1.70
2023-03-12T01:27:24.409Z,1.76
2023-03-12T01:29:51.103Z,1.83
2023-03-12T01:32:18.113Z,1.80
2023-03-12T01:34:45.044Z,1.83
2023-03-12T01:37:11.745Z,1.76
2023-03-12T01:39:38.576Z,1.66
2023-03-12T01:42:05.690Z,1.69
2023-03-12T01:44:56.314Z,1.68
2023-03-12T01:47:24.081Z,1.74
2023-03-12T01:49:52.367Z,1.72
2023-03-12T01:52:27.458Z,1.77
2023-03-12T01:55:07.792Z,1.75
2023-03-12T01:57:44.915Z,1.72
2023-03-12T02:00:29.644Z,1.65
2023-03-12T02:03:02.183Z,1.79
2023-03-12T02:05:51.976Z,1.62
2023-03-12T02:08:19.128Z,1.69
2023-03-12T02:10:46.338Z,1.69
2023-03-12T02:13:13.770Z,1.72
2023-03-12T02:15:45.121Z,1.72
2023-03-12T02:18:15.527Z,1.73
2023-03-12T02:21:06.789Z,1.73
2023-03-12T02:23:51.608Z,1.55
2023-03-12T02:26:19.078Z,1.66
2023-03-12T02:28:46.570Z,1.62
2023-03-12T02:31:15.838Z,1.56
2023-03-12T02:33:42.564Z,1.63
2023-03-12T02:36:09.987Z,1.58
2023-03-12T02:38:41.763Z,1.47
2023-03-12T02:41:29.392Z,1.43
2023-03-12T02:44:01.383Z,1.55
2023-03-12T02:46:30.920Z,1.65
2023-03-12T02:48:58.016Z,1.66
2023-03-12T02:51:24.763Z,1.64
2023-03-12T02:53:54.859Z,1.67
2023-03-12T02:56:24.436Z,1.67
2023-03-12T02:58:51.422Z,1.51
2023-03-12T03:01:18.573Z,1.50
2023-03-12T03:03:45.509Z,1.64
2023-03-12T03:06:12.527Z,1.66
2023-03-12T03:08:39.327Z,1.59
2023-03-12T03:11:07.010Z,1.56
2023-03-12T03:13:33.993Z,1.57
2023-03-12T03:16:01.987Z,1.68
2023-03-12T03:18:29.559Z,1.65
2023-03-12T03:21:02.100Z,1.64
2023-03-12T03:23:30.984Z,1.64
2023-03-12T03:25:59.545Z,1.59
2023-03-12T03:28:27.686Z,1.66
2023-03-12T03:30:58.210Z,1.68
2023-03-12T03:33:25.479Z,1.60
2023-03-12T03:35:52.362Z,1.58
2023-03-12T03:38:19.219Z,1.73
2023-03-12T03:40:46.166Z,1.71
2023-03-12T03:43:13.024Z,1.75
2023-03-12T03:45:39.928Z,1.72
2023-03-12T03:48:06.847Z,1.65
2023-03-12T03:50:34.121Z,1.62
2023-03-12T03:53:00.922Z,1.61
2023-03-12T03:55:27.594Z,1.59
2023-03-12T03:57:54.532Z,1.53
2023-03-12T04:00:21.860Z,1.58
2023-03-12T04:02:51.375Z,1.50
2023-03-12T04:05:19.599Z,1.54
2023-03-12T04:07:54.577Z,1.60
2023-03-12T04:10:24.956Z,1.67
2023-03-12T04:12:52.858Z,1.60
2023-03-12T04:15:19.597Z,1.66
2023-03-12T04:17:48.083Z,1.63
2023-03-12T04:20:15.689Z,1.69
2023-03-12T04:22:43.067Z,1.68
2023-03-12T04:25:11.239Z,1.71
2023-03-12T04:27:37.982Z,1.68
2023-03-12T04:30:05.328Z,1.70
2023-03-12T04:32:33.581Z,1.70
2023-03-12T04:35:00.354Z,1.71
2023-03-12T04:37:27.090Z,1.74
2023-03-12T04:39:53.923Z,1.70
2023-03-12T04:42:20.648Z,1.73
2023-03-12T04:44:48.009Z,1.74
2023-03-12T04:47:14.777Z,1.74
2023-03-12T04:49:41.574Z,1.73
2023-03-12T04:52:08.486Z,1.75
2023-03-12T04:54:35.244Z,1.72
2023-03-12T04:57:02.083Z,1.75
2023-03-12T04:59:28.776Z,1.74
2023-03-12T05:01:55.628Z,1.72
2023-03-12T05:04:26.717Z,1.74
2023-03-12T05:06:54.593Z,1.71
2023-03-12T05:09:21.486Z,1.76
2023-03-12T05:11:48.398Z,1.69
2023-03-12T05:14:18.214Z,1.70
2023-03-12T05:16:46.734Z,1.65
2023-03-12T05:19:13.537Z,1.63
2023-03-12T05:21:42.573Z,1.60
2023-03-12T05:24:10.297Z,1.67
2023-03-12T05:26:37.464Z,1.63
2023-03-12T05:29:16.817Z,1.61
2023-03-12T05:31:44.258Z,1.62
2023-03-12T05:34:12.874Z,1.72
2023-03-12T05:36:43.116Z,1.76
2023-03-12T05:39:10.936Z,1.72
2023-03-12T05:41:38.248Z,1.77
2023-03-12T05:44:13.663Z,1.74
2023-03-12T05:46:42.858Z,1.78
2023-03-12T05:49:10.041Z,1.76
2023-03-12T05:51:37.155Z,1.80
2023-03-12T05:54:04.138Z,1.77
2023-03-12T05:56:31.009Z,1.73
2023-03-12T05:58:58.389Z,1.78
2023-03-12T06:01:27.962Z,1.71
2023-03-12T06:03:56.931Z,1.71
2023-03-12T06:06:25.464Z,1.65
2023-03-12T06:08:53.449Z,1.62
2023-03-12T06:11:20.140Z,1.65
2023-03-12T06:13:47.848Z,1.61
2023-03-12T06:16:23.437Z,1.62
2023-03-12T06:18:53.646Z,1.59
2023-03-12T06:21:23.177Z,1.58
2023-03-12T06:23:50.964Z,1.58
2023-03-12T06:26:22.206Z,1.57
2023-03-12T06:28:50.048Z,1.58
2023-03-12T06:31:17.675Z,1.60
2023-03-12T06:33:44.443Z,1.60
2023-03-12T06:36:11.555Z,1.68
2023-03-12T06:38:38.678Z,1.71
2023-03-12T06:41:11.035Z,1.55
2023-03-12T06:43:38.612Z,1.64
2023-03-12T06:46:06.609Z,1.67
2023-03-12T06:48:36.559Z,1.65
2023-03-12T06:51:07.247Z,1.63
2023-03-12T06:53:34.127Z,1.62
2023-03-12T06:56:00.992Z,1.59
2023-03-12T06:58:27.663Z,1.71
2023-03-12T07:00:54.608Z,1.62
2023-03-12T07:03:21.623Z,1.68
2023-03-12T07:05:49.433Z,1.69
2023-03-12T07:08:16.886Z,1.67
2023-03-12T07:10:43.624Z,1.61
2023-03-12T07:13:10.642Z,1.68
2023-03-12T07:15:37.363Z,1.60
2023-03-12T07:18:08.583Z,1.66
2023-03-12T07:20:43.407Z,1.63
2023-03-12T07:23:10.166Z,1.69
2023-03-12T07:25:38.230Z,1.80
2023-03-12T07:28:05.169Z,1.83
2023-03-12T07:30:33.595Z,1.84
2023-03-12T07:33:02.209Z,1.85
2023-03-12T07:35:29.665Z,1.88
2023-03-12T07:37:56.559Z,1.91
2023-03-12T07:40:23.547Z,1.91
2023-03-12T07:42:51.099Z,1.98
2023-03-12T07:45:18.590Z,1.99
2023-03-12T07:47:45.837Z,2.03
2023-03-12T07:50:13.425Z,2.02
2023-03-12T07:52:40.296Z,2.12
2023-03-12T07:55:07.669Z,2.11
2023-03-12T07:57:34.451Z,2.07
2023-03-12T08:00:01.194Z,2.09
2023-03-12T08:02:28.063Z,2.09
2023-03-12T08:04:54.846Z,2.09
2023-03-12T08:07:21.640Z,2.13
2023-03-12T08:09:49.914Z,2.19
2023-03-12T08:12:17.345Z,2.20
2023-03-12T08:14:44.641Z,2.09
2023-03-12T08:17:11.763Z,2.09
2023-03-12T08:19:38.530Z,2.12
2023-03-12T08:22:06.626Z,2.17
2023-03-12T08:24:33.277Z,2.15
2023-03-12T08:26:59.902Z,2.18
2023-03-12T08:29:26.705Z,2.20
2023-03-12T08:32:04.154Z,2.18
2023-03-12T08:34:31.614Z,2.25
2023-03-12T08:36:58.332Z,2.23
2023-03-12T08:39:25.009Z,2.21
2023-03-12T08:41:55.196Z,2.16
2023-03-12T08:44:22.835Z,2.17
2023-03-12T08:46:49.842Z,2.17
2023-03-12T08:49:16.502Z,2.17
2023-03-12T08:51:43.158Z,2.18
2023-03-12T08:54:09.932Z,2.26
2023-03-12T08:56:42.371Z,2.31
2023-03-12T08:59:10.404Z,2.21
2023-03-12T09:01:37.606Z,2.29
2023-03-12T09:04:05.017Z,2.36
2023-03-12T09:06:33.362Z,2.35
2023-03-12T09:09:04.807Z,2.30
2023-03-12T09:11:33.107Z,2.31
2023-03-12T09:14:39.503Z,2.35
2023-03-12T09:16:47.182Z,2.36
2023-03-12T09:19:13.893Z,2.37
2023-03-12T09:21:40.626Z,2.40
2023-03-12T09:24:07.789Z,2.42
2023-03-12T09:26:34.539Z,2.39
2023-03-12T09:29:01.241Z,2.48
2023-03-12T09:31:27.909Z,2.46
2023-03-12T09:33:54.605Z,2.43
2023-03-12T09:36:21.263Z,2.49
2023-03-12T09:38:47.915Z,2.50
2023-03-12T09:41:35.941Z,2.42
2023-03-12T09:44:10.192Z,2.44
2023-03-12T09:46:55.063Z,2.38
2023-03-12T09:49:27.541Z,2.42
2023-03-12T09:51:56.006Z,2.48
2023-03-12T09:54:29.597Z,2.45
2023-03-12T09:56:58.364Z,2.47
2023-03-12T09:59:25.093Z,2.51
2023-03-12T10:01:55.094Z,2.53
2023-03-12T10:04:25.152Z,2.57
2023-03-12T10:07:13.298Z,2.58
2023-03-12T10:09:44.553Z,2.56
2023-03-12T10:12:20.481Z,2.54
2023-03-12T10:15:15.226Z,2.59
2023-03-12T10:18:04.217Z,2.53
2023-03-12T10:20:48.030Z,2.51
2023-03-12T10:23:28.038Z,2.54
2023-03-12T10:26:42.747Z,2.46
2023-03-12T10:29:19.280Z,2.59
2023-03-12T10:31:54.319Z,2.57
2023-03-12T10:34:25.226Z,2.64
2023-03-12T10:36:52.230Z,2.65
2023-03-12T10:39:20.384Z,2.71
2023-03-12T10:41:48.109Z,2.72
2023-03-12T10:44:19.932Z,2.72
2023-03-12T10:47:06.648Z,2.70
2023-03-12T10:49:36.021Z,2.75
2023-03-12T10:52:23.234Z,2.75
2023-03-12T10:54:52.053Z,2.83
2023-03-12T10:57:19.574Z,2.87
2023-03-12T10:59:48.156Z,2.84
2023-03-12T11:02:35.102Z,2.85
2023-03-12T11:05:06.973Z,2.88
2023-03-12T11:07:35.335Z,2.86
2023-03-12T11:10:17.925Z,2.86
2023-03-12T11:13:03.523Z,2.95
2023-03-12T11:15:36.338Z,2.98
2023-03-12T11:18:21.788Z,3.06
2023-03-12T11:20:50.363Z,3.12
2023-03-12T11:23:20.321Z,3.19
2023-03-12T11:26:04.242Z,3.18
2023-03-12T11:28:47.937Z,3.19
2023-03-12T11:31:27.067Z,3.25
2023-03-12T11:33:56.411Z,3.31
2023-03-12T11:36:30.372Z,3.31
2023-03-12T11:39:15.986Z,3.32
2023-03-12T11:41:42.530Z,3.36
2023-03-12T11:44:23.948Z,3.30
2023-03-12T11:47:03.800Z,3.24
2023-03-12T11:50:14.350Z,3.16
2023-03-12T11:53:05.336Z,3.17
2023-03-12T11:55:38.888Z,3.19
2023-03-12T11:58:49.396Z,3.20
2023-03-12T12:01:23.862Z,3.20
2023-03-12T12:04:20.638Z,3.25
2023-03-12T12:06:56.074Z,3.31
2023-03-12T12:09:28.954Z,3.33
2023-03-12T12:12:34.065Z,3.36
2023-03-12T12:15:09.671Z,3.43
2023-03-12T12:17:47.375Z,3.46
2023-03-12T12:20:21.706Z,3.50
2023-03-12T12:22:59.846Z,3.56
2023-03-12T12:25:45.006Z,3.56
2023-03-12T12:28:24.663Z,3.57
2023-03-12T12:31:09.563Z,3.56
2023-03-12T12:33:57.734Z,3.53
2023-03-12T12:36:27.632Z,3.56
2023-03-12T12:38:58.659Z,3.60
2023-03-12T12:41:26.436Z,3.68
2023-03-12T12:43:56.266Z,3.74
2023-03-12T12:46:26.848Z,3.80
2023-03-12T12:49:00.492Z,3.87
2023-03-12T12:51:33.512Z,3.93
2023-03-12T12:54:07.396Z,3.95
2023-03-12T12:56:54.148Z,3.94
2023-03-12T12:59:40.532Z,3.96
2023-03-12T13:02:26.341Z,3.93
2023-03-12T13:04:57.265Z,3.97
2023-03-12T13:07:25.766Z,3.98
2023-03-12T13:09:55.787Z,4.02
2023-03-12T13:12:29.467Z,4.04
2023-03-12T13:14:57.563Z,4.06
2023-03-12T13:17:35.556Z,4.07
2023-03-12T13:20:05.975Z,4.08
2023-03-12T13:22:48.541Z,4.09
2023-03-12T13:25:18.194Z,4.13
2023-03-12T13:27:45.991Z,4.12
2023-03-12T13:30:45.818Z,4.09
2023-03-12T13:33:15.613Z,4.20
2023-03-12T13:35:42.373Z,4.24
2023-03-12T13:38:18.538Z,4.25
2023-03-12T13:40:51.379Z,4.25
2023-03-12T13:43:37.156Z,4.28
2023-03-12T13:46:21.337Z,4.33
2023-03-12T13:48:49.040Z,4.39
2023-03-12T13:51:21.717Z,4.40
2023-03-12T13:53:53.911Z,4.42
2023-03-12T13:56:25.278Z,4.44
2023-03-12T13:59:07.484Z,4.46
2023-03-12T14:01:43.911Z,4.49
2023-03-12T14:04:19.110Z,4.52
2023-03-12T14:07:00.647Z,4.54
2023-03-12T14:09:57.670Z,4.57
2023-03-12T14:13:01.632Z,4.58
2023-03-12T14:15:30.668Z,4.56
2023-03-12T14:18:01.314Z,4.64
2023-03-12T14:20:28.811Z,4.67
2023-03-12T14:23:00.158Z,4.69
2023-03-12T14:25:35.793Z,4.74
2023-03-12T14:28:04.286Z,4.78
2023-03-12T14:30:40.668Z,4.82
2023-03-12T14:33:07.575Z,4.85
2023-03-12T14:35:43.744Z,4.85
2023-03-12T14:38:22.889Z,4.85
2023-03-12T14:41:01.496Z,4.87
2023-03-12T14:43:34.098Z,4.91
2023-03-12T14:46:04.822Z,4.94
2023-03-12T14:48:34.657Z,4.97
2023-03-12T14:51:03.324Z,5.03
2023-03-12T14:53:33.254Z,5.07
2023-03-12T14:56:13.278Z,5.08
2023-03-12T14:58:46.006Z,5.10
2023-03-12T15:01:17.155Z,5.10
2023-03-12T15:03:48.251Z,5.10
2023-03-12T15:06:32.858Z,5.07
2023-03-12T15:09:04.134Z,5.12
2023-03-12T15:11:32.679Z,5.13
2023-03-12T15:14:08.693Z,5.13
2023-03-12T15:16:35.762Z,5.18
2023-03-12T15:19:03.750Z,5.18
2023-03-12T15:21:33.491Z,5.19
2023-03-12T15:24:00.358Z,5.20
2023-03-12T15:26:30.134Z,5.21
2023-03-12T15:29:14.488Z,5.19
2023-03-12T15:31:43.498Z,5.22
2023-03-12T15:34:12.039Z,5.22
2023-03-12T15:36:48.957Z,5.21
2023-03-12T15:39:33.156Z,5.20
2023-03-12T15:42:10.465Z,5.24
2023-03-12T15:44:48.405Z,5.22
2023-03-12T15:47:29.704Z,5.21
2023-03-12T15:49:59.008Z,5.27
2023-03-12T15:52:33.758Z,5.26
2023-03-12T15:55:00.422Z,5.30
2023-03-12T15:57:27.538Z,5.32
2023-03-12T16:00:09.783Z,5.34
2023-03-12T16:02:46.834Z,5.37
2023-03-12T16:05:13.627Z,5.37
2023-03-12T16:07:40.431Z,5.39
2023-03-12T16:10:10.054Z,5.41
2023-03-12T16:12:38.115Z,5.43
2023-03-12T16:15:05.215Z,5.46
2023-03-12T16:17:31.954Z,5.51
2023-03-12T16:19:58.647Z,5.53
2023-03-12T16:22:25.290Z,5.55
2023-03-12T16:24:52.130Z,5.58
2023-03-12T16:27:31.640Z,5.60
2023-03-12T16:29:59.158Z,5.63
2023-03-12T16:32:26.152Z,5.66
2023-03-12T16:34:52.833Z,5.70
2023-03-12T16:37:19.689Z,5.72
2023-03-12T16:39:48.147Z,5.71
2023-03-12T16:42:18.904Z,5.73
2023-03-12T16:44:46.357Z,5.78
2023-03-12T16:47:13.929Z,5.81
2023-03-12T16:49:40.970Z,5.83
2023-03-12T16:52:18.572Z,5.83
2023-03-12T16:54:45.274Z,5.86
2023-03-12T16:57:34.103Z,5.87
2023-03-12T17:00:02.098Z,5.89
2023-03-12T17:02:29.835Z,5.90
2023-03-12T17:04:56.743Z,5.88
2023-03-12T17:07:23.470Z,5.90
2023-03-12T17:09:50.233Z,5.92
2023-03-12T17:12:30.490Z,5.91
2023-03-12T17:14:57.790Z,5.96
2023-03-12T17:17:24.688Z,5.94
2023-03-12T17:19:52.039Z,5.93
2023-03-12T17:22:19.680Z,5.92
2023-03-12T17:24:47.185Z,5.93
2023-03-12T17:27:15.507Z,5.94
2023-03-12T17:29:42.539Z,5.92
2023-03-12T17:32:11.006Z,5.91
2023-03-12T17:34:37.783Z,5.90
2023-03-12T17:37:04.493Z,5.90
2023-03-12T17:39:31.262Z,5.88
2023-03-12T17:41:57.975Z,5.92
2023-03-12T17:44:25.532Z,5.96
2023-03-12T17:46:59.193Z,5.97
2023-03-12T17:49:26.569Z,5.98
2023-03-12T17:51:53.411Z,5.97
2023-03-12T17:54:20.292Z,5.95
2023-03-12T17:56:47.009Z,5.95
2023-03-12T17:59:13.614Z,5.94
2023-03-12T18:01:40.272Z,5.93
2023-03-12T18:04:07.073Z,5.95
2023-03-12T18:06:33.846Z,5.94
2023-03-12T18:09:00.581Z,5.94
2023-03-12T18:11:27.348Z,5.95
2023-03-12T18:13:54.090Z,5.92
2023-03-12T18:16:20.857Z,5.94
2023-03-12T18:18:47.573Z,5.96
2023-03-12T18:21:14.273Z,5.95
2023-03-12T18:23:42.560Z,5.96
2023-03-12T18:26:09.277Z,5.96
2023-03-12T18:28:36.105Z,5.95
2023-03-12T18:31:03.729Z,5.96
2023-03-12T18:33:34.900Z,5.94
2023-03-12T18:36:01.946Z,5.97
2023-03-12T18:38:28.804Z,5.98
2023-03-12T18:41:05.097Z,5.95
2023-03-12T18:43:32.581Z,5.96
2023-03-12T18:45:59.479Z,5.98
2023-03-12T18:48:26.295Z,5.98
2023-03-12T18:50:53.408Z,6.00
2023-03-12T18:53:20.340Z,6.02
2023-03-12T18:56:05.428Z,5.96
2023-03-12T18:58:32.100Z,6.01
2023-03-12T19:00:59.153Z,6.01
2023-03-12T19:03:27.339Z,6.00
2023-03-12T19:06:03.805Z,5.98
2023-03-12T19:08:30.669Z,6.03
2023-03-12T19:10:57.400Z,6.03
2023-03-12T19:13:24.210Z,6.04
2023-03-12T19:15:57.550Z,6.03
2023-03-12T19:18:24.324Z,6.04
2023-03-12T19:20:50.969Z,6.05
2023-03-12T19:23:17.750Z,6.05
2023-03-12T19:25:44.464Z,6.05
2023-03-12T19:28:11.192Z,6.06
2023-03-12T19:30:37.916Z,6.06
2023-03-12T19:33:04.704Z,6.07
2023-03-12T19:35:31.949Z,6.09
2023-03-12T19:37:59.478Z,6.11
2023-03-12T19:40:26.247Z,6.12
2023-03-12T19:42:53.007Z,6.13
2023-03-12T19:45:19.667Z,6.15
2023-03-12T19:47:46.333Z,6.16
2023-03-12T19:50:21.796Z,6.18
2023-03-12T19:52:48.932Z,6.19
2023-03-12T19:55:15.892Z,6.19
2023-03-12T19:57:42.655Z,6.19
2023-03-12T20:00:12.065Z,6.19
2023-03-12T20:02:39.376Z,6.19
2023-03-12T20:05:07.052Z,6.22
2023-03-12T20:07:36.942Z,6.24
2023-03-12T20:10:05.639Z,6.24
2023-03-12T20:12:33.006Z,6.27
2023-03-12T20:14:59.668Z,6.28
2023-03-12T20:17:26.320Z,6.29
2023-03-12T20:19:53.175Z,6.31
2023-03-12T20:22:20.714Z,6.32
2023-03-12T20:24:47.399Z,6.33
2023-03-12T20:27:14.128Z,6.34
2023-03-12T20:29:43.301Z,6.34
2023-03-12T20:32:10.159Z,6.35
2023-03-12T20:34:37.379Z,6.39
2023-03-12T20:37:04.200Z,6.38
2023-03-12T20:39:30.949Z,6.38
2023-03-12T20:41:57.725Z,6.40
2023-03-12T20:44:24.453Z,6.40
2023-03-12T20:46:51.162Z,6.40
2023-03-12T20:49:17.834Z,6.41
2023-03-12T20:51:45.974Z,6.39
2023-03-12T20:54:12.815Z,6.41
2023-03-12T20:56:43.610Z,6.40
2023-03-12T20:59:11.446Z,6.41
2023-03-12T21:01:38.342Z,6.39
2023-03-12T21:04:05.303Z,6.40
2023-03-12T21:06:32.008Z,6.42
2023-03-12T21:08:58.983Z,6.43
2023-03-12T21:11:29.086Z,6.43
2023-03-12T21:13:55.900Z,6.43
2023-03-12T21:16:22.632Z,6.44
2023-03-12T21:18:49.388Z,6.44
2023-03-12T21:21:16.495Z,6.45
2023-03-12T21:23:43.375Z,6.45
2023-03-12T21:26:11.697Z,6.46
2023-03-12T21:28:38.454Z,6.46
2023-03-12T21:31:10.524Z,6.46
2023-03-12T21:33:37.527Z,6.49
2023-03-12T21:36:08.780Z,6.50
2023-03-12T21:38:36.304Z,6.51
2023-03-12T21:41:07.482Z,6.50
2023-03-12T21:43:34.656Z,6.50
2023-03-12T21:46:06.144Z,6.49
2023-03-12T21:48:33.180Z,6.49
2023-03-12T21:51:07.793Z,6.48
2023-03-12T21:53:34.741Z,6.50
2023-03-12T21:56:02.139Z,6.52
2023-03-12T21:58:29.863Z,6.52
2023-03-12T22:01:22.584Z,6.46
2023-03-12T22:03:49.246Z,6.53
2023-03-12T22:06:16.498Z,6.55
2023-03-12T22:08:43.750Z,6.57
2023-03-12T22:11:10.655Z,6.55
2023-03-12T22:13:37.491Z,6.57
2023-03-12T22:16:07.660Z,6.56
2023-03-12T22:18:38.917Z,6.55
2023-03-12T22:21:07.517Z,6.57
2023-03-12T22:23:35.914Z,6.55
2023-03-12T22:26:04.713Z,6.56
2023-03-12T22:28:31.896Z,6.55
2023-03-12T22:31:06.326Z,6.54
2023-03-12T22:33:35.678Z,6.55
2023-03-12T22:36:07.455Z,6.53
2023-03-12T22:38:36.458Z,6.58
2023-03-12T22:41:16.134Z,6.57
2023-03-12T22:43:42.874Z,6.64
2023-03-12T22:46:09.659Z,6.66
2023-03-12T22:48:36.783Z,6.67
2023-03-12T22:51:04.673Z,6.66
2023-03-12T22:53:32.048Z,6.67
2023-03-12T22:56:02.665Z,6.65
2023-03-12T22:58:29.531Z,6.63
2023-03-12T23:01:11.394Z,6.59
2023-03-12T23:03:39.419Z,6.63
2023-03-12T23:06:14.775Z,6.62
2023-03-12T23:08:41.980Z,6.64
2023-03-12T23:11:10.217Z,6.64
2023-03-12T23:13:40.100Z,6.65
2023-03-12T23:16:09.910Z,6.65
2023-03-12T23:18:36.798Z,6.65
2023-03-12T23:21:06.737Z,6.65
2023-03-12T23:23:33.810Z,6.66
2023-03-12T23:26:01.413Z,6.66
2023-03-12T23:28:28.731Z,6.67
2023-03-12T23:30:59.275Z,6.66
2023-03-12T23:33:26.809Z,6.67
2023-03-12T23:35:55.636Z,6.67
2023-03-12T23:38:22.753Z,6.67
2023-03-12T23:40:49.626Z,6.69
2023-03-12T23:43:16.371Z,6.70
2023-03-12T23:45:43.179Z,6.71
2023-03-12T23:48:10.134Z,6.70
2023-03-12T23:50:37.036Z,6.72
2023-03-12T23:53:03.889Z,6.73
2023-03-12T23:55:30.565Z,6.73
2023-03-12T23:57:57.222Z,6.75
